Time;durP1;ratioP1;P1;durP2;ratioP2;P2;SDS_P1;SDS_P2;PMS_P1;PMS_P2;Temp;Humidity;BMP_temperature;BMP_pressure;BME280_temperature;BME280_humidity;BME280_pressure;Samples;Min_cycle;Max_cycle;Signal;HPM_P1;HPM_P2
2023/09/17 00:00:30;;;;;;;;;;;;;;;28.28;35.37;101356.25;5065509;28;1910;-29
2023/09/17 00:02:55;;;;;;;;;;;;;;;28.24;35.35;101347.63;5078640;28;858;-28
2023/09/17 00:05:21;;;;;;;;;;;;;;;28.32;35.15;101353.00;5078523;28;1213;-32
2023/09/17 00:07:47;;;;;;;;;;;;;;;28.19;35.65;101341.91;5079077;28;1114;-30
2023/09/17 00:10:12;;;;;;;;;;;;;;;28.30;35.26;101341.50;5078650;28;1170;-30
2023/09/17 00:12:38;;;;;;;;;;;;;;;28.24;35.34;101345.75;5079125;28;1054;-32
2023/09/17 00:15:04;;;;;;;;;;;;;;;28.24;35.42;101339.50;5076120;28;1078;-30
2023/09/17 00:17:29;;;;;;;;;;;;;;;28.28;35.20;101338.13;5078730;28;1022;-36
2023/09/17 00:19:55;;;;;;;;;;;;;;;28.27;35.28;101344.56;5047173;28;1914;-30
2023/09/17 00:22:20;;;;;;;;;;;;;;;28.28;35.03;101331.88;5067145;28;1074;-30
2023/09/17 00:24:46;;;;;;;;;;;;;;;28.28;35.00;101331.88;5063412;28;1028;-31
2023/09/17 00:27:11;;;;;;;;;;;;;;;28.09;35.63;101334.00;5077990;28;892;-32
2023/09/17 00:29:37;;;;;;;;;;;;;;;28.04;35.83;101330.97;5060981;28;1075;-32
2023/09/17 00:32:02;;;;;;;;;;;;;;;27.95;35.68;101325.59;5069439;28;1210;-31
2023/09/17 00:34:28;;;;;;;;;;;;;;;28.07;35.59;101319.78;5074007;28;1140;-32
2023/09/17 00:36:54;;;;;;;;;;;;;;;28.06;35.54;101320.81;5050200;28;1240;-30
2023/09/17 00:39:20;;;;;;;;;;;;;;;27.97;35.49;101315.44;5060054;28;1969;-30
2023/09/17 00:41:46;;;;;;;;;;;;;;;27.99;35.87;101313.38;5077714;28;1046;-29
2023/09/17 00:44:11;;;;;;;;;;;;;;;28.05;35.41;101311.84;5078198;28;1071;-28
2023/09/17 00:46:37;;;;;;;;;;;;;;;28.03;35.83;101313.88;5078259;28;1078;-30
2023/09/17 00:49:02;;;;;;;;;;;;;;;27.90;35.84;101319.00;5056670;28;1233;-32
2023/09/17 00:51:28;;;;;;;;;;;;;;;28.03;35.59;101307.66;5056347;28;927;-31
2023/09/17 00:53:54;;;;;;;;;;;;;;;28.04;35.72;101312.03;5078414;28;1074;-30
2023/09/17 00:56:19;;;;;;;;;;;;;;;28.02;35.54;101305.94;5077862;28;1059;-30
2023/09/17 00:58:45;;;;;;;;;;;;;;;28.02;35.46;101305.94;5059850;28;1332;-28
2023/09/17 01:01:12;;;;;;;;;;;;;;;28.12;35.67;101306.59;5067391;28;1905;-30
2023/09/17 01:03:38;;;;;;;;;;;;;;;28.07;35.65;101311.69;5070761;28;1158;-31
2023/09/17 01:06:03;;;;;;;;;;;;;;;27.93;35.72;101313.25;5050590;28;1254;-30
2023/09/17 01:08:29;;;;;;;;;;;;;;;27.99;35.58;101315.28;5060162;28;1297;-29
2023/09/17 01:10:54;;;;;;;;;;;;;;;28.13;35.45;101310.97;5077537;28;1141;-27
2023/09/17 01:13:20;;;;;;;;;;;;;;;28.03;35.31;101307.66;5077635;28;1141;-29
2023/09/17 01:15:45;;;;;;;;;;;;;;;28.14;35.15;101306.41;5049037;28;868;-31
2023/09/17 01:18:11;;;;;;;;;;;;;;;28.07;35.40;101295.47;5061349;28;1094;-32
2023/09/17 01:20:44;;;;;;;;;;;;;;;28.17;35.25;101296.09;5059401;28;1910;-30
2023/09/17 01:23:13;;;;;;;;;;;;;;;28.32;34.91;101306.16;5041858;28;1095;-31
2023/09/17 01:25:47;;;;;;;;;;;;;;;28.20;35.24;101297.59;5034521;28;1084;-30
2023/09/17 01:28:13;;;;;;;;;;;;;;;28.28;35.02;101302.13;5076335;28;1183;-28
2023/09/17 01:30:41;;;;;;;;;;;;;;;28.39;34.86;101290.94;5059358;28;1070;-31
2023/09/17 01:33:10;;;;;;;;;;;;;;;28.38;34.42;101288.41;5058203;28;1163;-35
2023/09/17 01:35:37;;;;;;;;;;;;;;;28.40;35.01;101295.31;5077104;28;1038;-29
2023/09/17 01:38:04;;;;;;;;;;;;;;;28.16;35.19;101286.28;5058615;28;1104;-30
2023/09/17 01:40:31;;;;;;;;;;;;;;;28.27;35.03;101293.16;5059363;28;1890;-29
2023/09/17 01:42:57;;;;;;;;;;;;;;;28.32;35.22;101290.75;5055554;28;1032;-28
2023/09/17 01:45:22;;;;;;;;;;;;;;;28.24;35.30;101283.53;5039411;28;1148;-29
2023/09/17 01:47:48;;;;;;;;;;;;;;;28.34;34.91;101274.38;5046318;28;1039;-30
2023/09/17 01:50:19;;;;;;;;;;;;;;;28.20;35.28;101274.09;5076852;28;1138;-28
2023/09/17 01:52:44;;;;;;;;;;;;;;;28.25;35.03;101270.84;5059878;28;1031;-32
2023/09/17 01:55:10;;;;;;;;;;;;;;;28.35;34.80;101270.66;5058781;28;1012;-29
2023/09/17 01:57:36;;;;;;;;;;;;;;;28.44;34.74;101272.28;5076814;28;1046;-29
2023/09/17 02:00:14;;;;;;;;;;;;;;;28.25;35.09;101273.56;5044824;28;1906;-30
2023/09/17 02:02:49;;;;;;;;;;;;;;;28.17;35.13;101277.16;5065253;28;1087;-29
2023/09/17 02:05:20;;;;;;;;;;;;;;;28.22;35.04;101277.47;5076643;28;1099;-29
2023/09/17 02:07:46;;;;;;;;;;;;;;;28.32;34.49;101270.97;5075245;28;1280;-27
2023/09/17 02:10:11;;;;;;;;;;;;;;;28.37;34.47;101268.63;5076125;28;1139;-31
2023/09/17 02:12:36;;;;;;;;;;;;;;;28.31;34.72;101269.31;5047818;28;1058;-29
2023/09/17 02:15:03;;;;;;;;;;;;;;;28.30;34.64;101259.47;5073155;28;1131;-28
2023/09/17 02:17:29;;;;;;;;;;;;;;;28.40;34.80;101262.84;5058061;28;1058;-29
2023/09/17 02:19:54;;;;;;;;;;;;;;;28.35;34.85;101265.22;5058153;28;1969;-30
2023/09/17 02:22:20;;;;;;;;;;;;;;;28.33;34.67;101262.72;5047728;28;1269;-28
2023/09/17 02:24:46;;;;;;;;;;;;;;;28.36;35.00;101261.53;5055169;28;1067;-29
2023/09/17 02:27:13;;;;;;;;;;;;;;;28.40;34.71;101261.97;5058245;28;1063;-30
2023/09/17 02:29:39;;;;;;;;;;;;;;;28.32;34.58;101262.84;5058146;28;1428;-28
2023/09/17 02:32:05;;;;;;;;;;;;;;;28.35;34.17;101262.53;5057948;28;1030;-31
2023/09/17 02:34:30;;;;;;;;;;;;;;;28.41;34.59;101259.09;5057898;28;1228;-30
2023/09/17 02:36:56;;;;;;;;;;;;;;;28.34;34.74;101258.97;5058104;28;1146;-30
2023/09/17 02:39:22;;;;;;;;;;;;;;;28.28;35.11;101261.56;5067424;28;1906;-32
2023/09/17 02:41:47;;;;;;;;;;;;;;;28.31;34.78;101263.91;5076397;28;1143;-30
2023/09/17 02:44:13;;;;;;;;;;;;;;;28.46;34.37;101264.00;5075776;28;1151;-31
2023/09/17 02:46:40;;;;;;;;;;;;;;;28.38;34.63;101264.88;5076002;28;1070;-33
2023/09/17 02:49:05;;;;;;;;;;;;;;;28.33;34.78;101261.84;5058008;28;1166;-30
2023/09/17 02:51:31;;;;;;;;;;;;;;;28.31;34.69;101263.91;5057970;28;1071;-27
2023/09/17 02:53:56;;;;;;;;;;;;;;;28.39;34.52;101260.31;5057969;28;1154;-28
2023/09/17 02:56:22;;;;;;;;;;;;;;;28.38;34.76;101261.34;5058155;28;1189;-30
2023/09/17 02:58:47;;;;;;;;;;;;;;;28.35;34.70;101260.69;5076074;28;1204;-31
2023/09/17 03:01:17;;;;;;;;;;;;;;;28.29;34.71;101269.47;5045674;28;1996;-30
2023/09/17 03:03:47;;;;;;;;;;;;;;;28.23;35.00;101270.19;5039083;28;1361;-29
2023/09/17 03:06:12;;;;;;;;;;;;;;;28.30;34.80;101270.31;5016372;28;1036;-29
2023/09/17 03:08:41;;;;;;;;;;;;;;;28.55;34.19;101271.03;5020986;28;1047;-29
2023/09/17 03:11:12;;;;;;;;;;;;;;;28.48;34.45;101279.03;5034940;28;1422;-30
2023/09/17 03:13:40;;;;;;;;;;;;;;;28.47;34.44;101285.47;5035060;28;1366;-29
2023/09/17 03:16:06;;;;;;;;;;;;;;;28.48;34.51;101280.88;5035289;28;1019;-27
2023/09/17 03:18:31;;;;;;;;;;;;;;;28.38;34.79;101286.53;5023159;28;1139;-30
2023/09/17 03:20:57;;;;;;;;;;;;;;;27.69;38.05;101288.84;5020830;28;1915;-31
2023/09/17 03:23:23;;;;;;;;;;;;;;;27.53;38.64;101292.41;5030754;28;993;-30
2023/09/17 03:25:48;;;;;;;;;;;;;;;27.29;39.55;101287.91;5022900;28;1179;-26
2023/09/17 03:28:14;;;;;;;;;;;;;;;27.29;39.90;101283.34;5033968;28;1271;-30
2023/09/17 03:30:41;;;;;;;;;;;;;;;27.12;40.16;101286.06;5033804;28;1326;-31
2023/09/17 03:33:07;;;;;;;;;;;;;;;27.12;40.45;101290.63;5034399;28;1136;-27
2023/09/17 03:35:46;;;;;;;;;;;;;;;26.88;40.98;101279.63;5034020;28;2056;-32
2023/09/17 03:38:12;;;;;;;;;;;;;;;26.72;41.26;101285.00;5034342;28;1418;-33
2023/09/17 03:40:39;;;;;;;;;;;;;;;26.56;41.82;101291.25;5034136;28;1977;-32
2023/09/17 03:43:04;;;;;;;;;;;;;;;26.50;41.89;101284.63;5034420;28;1524;-31
2023/09/17 03:45:31;;;;;;;;;;;;;;;26.46;42.07;101283.31;5020912;28;1341;-34
2023/09/17 03:47:56;;;;;;;;;;;;;;;26.51;41.83;101292.56;5034032;28;1114;-32
2023/09/17 03:50:22;;;;;;;;;;;;;;;26.85;40.82;101279.09;5034280;28;1170;-31
2023/09/17 03:52:48;;;;;;;;;;;;;;;27.20;40.30;101287.06;5034740;28;917;-28
2023/09/17 03:55:14;;;;;;;;;;;;;;;27.20;40.18;101289.75;5018067;28;1230;-29
2023/09/17 03:57:40;;;;;;;;;;;;;;;26.70;41.18;101287.03;5025782;28;1060;-30
2023/09/17 04:00:07;;;;;;;;;;;;;;;26.67;40.70;101292.75;5035602;28;1971;-28
2023/09/17 04:02:40;;;;;;;;;;;;;;;26.91;40.71;101289.22;5025799;28;1519;-30
2023/09/17 04:05:11;;;;;;;;;;;;;;;27.09;40.40;101293.66;5026538;28;1364;-31
2023/09/17 04:07:38;;;;;;;;;;;;;;;27.05;40.91;101292.28;5031016;28;1121;-28
2023/09/17 04:10:05;;;;;;;;;;;;;;;27.09;40.05;101289.09;5038775;28;956;-30
2023/09/17 04:12:32;;;;;;;;;;;;;;;27.12;40.54;101293.31;5023920;28;1106;-32
2023/09/17 04:14:58;;;;;;;;;;;;;;;27.29;39.54;101291.44;5028733;28;2872;-27
2023/09/17 04:17:24;;;;;;;;;;;;;;;27.19;39.32;101291.63;5032467;28;1099;-32
2023/09/17 04:19:50;;;;;;;;;;;;;;;26.94;40.17;101282.66;5038360;28;1906;-30
2023/09/17 04:22:16;;;;;;;;;;;;;;;26.96;40.18;101284.16;5037074;28;1233;-27
2023/09/17 04:24:42;;;;;;;;;;;;;;;26.99;40.02;101280.31;5038094;28;1059;-29
2023/09/17 04:27:08;;;;;;;;;;;;;;;27.05;39.52;101287.75;5038031;28;1109;-28
2023/09/17 04:29:33;;;;;;;;;;;;;;;26.87;39.77;101286.03;5036415;28;1094;-32
2023/09/17 04:31:59;;;;;;;;;;;;;;;27.17;39.24;101293.66;5019345;28;1023;-29
2023/09/17 04:34:25;;;;;;;;;;;;;;;27.11;39.55;101288.94;5029435;28;1306;-30
2023/09/17 04:36:51;;;;;;;;;;;;;;;26.95;39.87;101295.13;5037536;28;999;-28
2023/09/17 04:39:17;;;;;;;;;;;;;;;27.18;39.22;101297.19;5035871;28;1911;-27
2023/09/17 04:41:43;;;;;;;;;;;;;;;27.06;39.76;101285.91;5036312;28;2061;-30
2023/09/17 04:44:10;;;;;;;;;;;;;;;27.09;39.40;101294.47;5036502;28;1860;-32
2023/09/17 04:46:39;;;;;;;;;;;;;;;27.07;39.36;101292.97;5036274;28;1146;-28
2023/09/17 04:49:06;;;;;;;;;;;;;;;26.88;39.91;101298.50;5036656;28;1225;-28
2023/09/17 04:51:35;;;;;;;;;;;;;;;27.07;39.60;101299.22;5036278;28;1244;-30
2023/09/17 04:54:01;;;;;;;;;;;;;;;27.32;39.45;101288.41;5036484;28;1212;-30
2023/09/17 04:56:27;;;;;;;;;;;;;;;27.34;39.57;101297.16;5036359;28;1121;-30
2023/09/17 04:58:52;;;;;;;;;;;;;;;27.35;39.04;101298.00;5036239;28;1322;-32
2023/09/17 05:01:18;;;;;;;;;;;;;;;27.25;39.38;101304.44;5033039;28;1906;-29
2023/09/17 05:03:46;;;;;;;;;;;;;;;27.37;39.36;101302.25;5036271;28;1358;-30
2023/09/17 05:06:12;;;;;;;;;;;;;;;27.21;39.28;101300.38;5036590;28;1315;-27
2023/09/17 05:08:38;;;;;;;;;;;;;;;27.30;39.33;101298.53;5030784;28;1131;-31
2023/09/17 05:11:05;;;;;;;;;;;;;;;27.52;38.74;101296.13;5027483;28;1248;-34
2023/09/17 05:13:31;;;;;;;;;;;;;;;27.21;39.02;101302.25;5035674;28;1829;-29
2023/09/17 05:15:56;;;;;;;;;;;;;;;27.37;39.07;101293.28;5035943;28;1153;-29
2023/09/17 05:18:22;;;;;;;;;;;;;;;27.31;39.16;101299.38;5035694;28;1115;-30
2023/09/17 05:20:49;;;;;;;;;;;;;;;27.20;39.75;101292.47;5036012;28;1910;-29
2023/09/17 05:23:16;;;;;;;;;;;;;;;27.57;38.40;101306.41;5035785;28;1261;-32
2023/09/17 05:25:42;;;;;;;;;;;;;;;27.52;38.54;101296.13;5035593;28;1242;-33
2023/09/17 05:28:09;;;;;;;;;;;;;;;27.33;38.64;101294.63;5035419;28;1230;-28
2023/09/17 05:30:35;;;;;;;;;;;;;;;27.56;37.89;101302.84;5035953;28;1355;-28
2023/09/17 05:33:01;;;;;;;;;;;;;;;27.37;38.65;101302.25;5032081;28;1131;-31
2023/09/17 05:35:27;;;;;;;;;;;;;;;27.51;38.30;101307.94;5044267;28;1324;-32
2023/09/17 05:37:52;;;;;;;;;;;;;;;27.43;38.30;101303.41;5035227;28;1332;-30
2023/09/17 05:40:18;;;;;;;;;;;;;;;27.29;39.17;101304.09;5035342;28;1906;-27
2023/09/17 05:42:44;;;;;;;;;;;;;;;27.48;38.32;101305.56;5035180;28;1136;-28
2023/09/17 05:45:09;;;;;;;;;;;;;;;27.37;37.47;101296.00;5035395;28;2671;-32
2023/09/17 05:47:35;;;;;;;;;;;;;;;27.33;38.19;101302.72;5035459;28;1132;-29
2023/09/17 05:50:01;;;;;;;;;;;;;;;27.45;37.68;101304.06;5035531;28;1140;-28
2023/09/17 05:52:32;;;;;;;;;;;;;;;27.09;38.73;101293.66;5035057;28;1126;-27
2023/09/17 05:54:57;;;;;;;;;;;;;;;27.39;38.31;101299.38;5035717;28;1227;-29
2023/09/17 05:57:23;;;;;;;;;;;;;;;27.23;38.48;101297.50;5035427;28;1196;-27
2023/09/17 05:59:49;;;;;;;;;;;;;;;27.38;38.95;101294.97;5035142;28;1974;-30
2023/09/17 06:02:14;;;;;;;;;;;;;;;27.46;37.65;101303.06;5070988;28;1111;-30
2023/09/17 06:04:40;;;;;;;;;;;;;;;27.43;38.24;101302.53;5076007;28;1034;-27
2023/09/17 06:07:06;;;;;;;;;;;;;;;27.35;38.30;101296.16;5058394;28;1118;-27
2023/09/17 06:09:32;;;;;;;;;;;;;;;27.33;38.21;101306.28;5058364;28;1095;-29
2023/09/17 06:11:57;;;;;;;;;;;;;;;27.48;37.63;101309.13;5058122;28;1511;-28
2023/09/17 06:14:23;;;;;;;;;;;;;;;27.29;38.51;101306.81;5076184;28;1824;-27
2023/09/17 06:16:49;;;;;;;;;;;;;;;27.43;37.73;101306.09;5057883;28;1256;-29
2023/09/17 06:19:14;;;;;;;;;;;;;;;27.40;37.78;101306.44;5057775;28;1971;-28
2023/09/17 06:21:41;;;;;;;;;;;;;;;27.63;37.43;101305.72;5076000;28;1164;-30
2023/09/17 06:24:06;;;;;;;;;;;;;;;27.31;38.09;101304.78;5058087;28;1419;-28
2023/09/17 06:26:32;;;;;;;;;;;;;;;27.46;38.10;101307.63;5044759;28;1210;-29
2023/09/17 06:28:58;;;;;;;;;;;;;;;27.05;38.16;101303.94;5057448;28;1099;-29
2023/09/17 06:31:24;;;;;;;;;;;;;;;27.38;37.84;101312.03;5052627;28;1247;-28
2023/09/17 06:33:50;;;;;;;;;;;;;;;27.46;36.94;101313.03;5067636;28;1020;-31
2023/09/17 06:36:15;;;;;;;;;;;;;;;27.14;37.99;101315.59;5058205;28;1355;-27
2023/09/17 06:38:41;;;;;;;;;;;;;;;27.48;37.38;101314.53;5046328;28;1297;-32
2023/09/17 06:41:07;;;;;;;;;;;;;;;27.12;38.34;101314.91;5073785;28;1988;-28
2023/09/17 06:43:33;;;;;;;;;;;;;;;27.51;37.32;101310.63;5075547;28;2318;-28
2023/09/17 06:45:59;;;;;;;;;;;;;;;27.19;37.61;101315.09;5058090;28;1058;-27
2023/09/17 06:48:25;;;;;;;;;;;;;;;27.63;37.66;101321.94;5075807;28;1035;-28
2023/09/17 06:50:50;;;;;;;;;;;;;;;27.20;38.27;101320.31;5057559;28;1071;-28
2023/09/17 06:53:16;;;;;;;;;;;;;;;27.37;38.19;101318.44;5071915;28;1058;-27
2023/09/17 06:55:41;;;;;;;;;;;;;;;27.12;37.89;101320.31;5075801;28;1078;-29
2023/09/17 06:58:08;;;;;;;;;;;;;;;27.16;38.53;101318.13;5075384;28;1031;-30
2023/09/17 07:00:35;;;;;;;;;;;;;;;27.46;37.15;101324.66;5075166;28;2055;-26
2023/09/17 07:03:01;;;;;;;;;;;;;;;26.86;38.78;101316.72;5063448;28;1026;-33
2023/09/17 07:05:27;;;;;;;;;;;;;;;27.27;38.41;101317.78;5064004;28;1202;-29
2023/09/17 07:07:52;;;;;;;;;;;;;;;26.92;38.36;101309.81;5075112;28;1019;-29
2023/09/17 07:10:18;;;;;;;;;;;;;;;27.33;37.97;101318.94;5062296;28;1054;-31
2023/09/17 07:12:43;;;;;;;;;;;;;;;27.40;37.29;101325.34;5075521;28;1031;-29
2023/09/17 07:15:10;;;;;;;;;;;;;;;27.21;38.31;101321.16;5063209;28;2519;-30
2023/09/17 07:17:36;;;;;;;;;;;;;;;27.69;38.08;101328.56;5075346;28;1094;-32
2023/09/17 07:20:02;;;;;;;;;;;;;;;26.85;38.90;101328.56;5075010;28;1906;-30
2023/09/17 07:22:28;;;;;;;;;;;;;;;27.26;38.78;101327.72;5062644;28;1051;-29
2023/09/17 07:24:58;;;;;;;;;;;;;;;27.61;37.45;101322.09;5061197;28;1154;-29
2023/09/17 07:27:27;;;;;;;;;;;;;;;27.41;37.79;101327.03;5075128;28;1011;-31
2023/09/17 07:29:54;;;;;;;;;;;;;;;27.68;37.74;101326.81;5074603;28;932;-29
2023/09/17 07:32:19;;;;;;;;;;;;;;;27.59;37.54;101320.59;5077937;28;995;-28
2023/09/17 07:34:44;;;;;;;;;;;;;;;27.29;38.00;101326.56;5079169;28;1079;-29
2023/09/17 07:37:11;;;;;;;;;;;;;;;27.71;37.06;101329.22;5077800;28;1079;-27
2023/09/17 07:39:38;;;;;;;;;;;;;;;27.37;37.94;101331.09;5065999;28;1914;-30
2023/09/17 07:42:03;;;;;;;;;;;;;;;27.13;38.16;101322.00;5078618;28;1026;-31
2023/09/17 07:44:29;;;;;;;;;;;;;;;27.68;38.12;101327.69;5073049;28;2510;-32
2023/09/17 07:46:54;;;;;;;;;;;;;;;27.06;38.94;101321.81;5078810;28;1051;-28
2023/09/17 07:49:24;;;;;;;;;;;;;;;26.94;38.98;101324.00;5065846;28;1074;-28
2023/09/17 07:51:50;;;;;;;;;;;;;;;27.51;37.88;101322.28;5078864;28;1042;-30
2023/09/17 07:54:16;;;;;;;;;;;;;;;27.62;37.26;101329.22;5078849;28;1047;-31
2023/09/17 07:56:41;;;;;;;;;;;;;;;27.08;38.03;101319.81;5078841;28;1106;-29
2023/09/17 07:59:07;;;;;;;;;;;;;;;26.95;39.21;101325.69;5078589;28;1981;-30
2023/09/17 08:01:32;;;;;;;;;;;;;;;26.86;39.63;101329.41;5078557;28;1146;-30
2023/09/17 08:03:58;;;;;;;;;;;;;;;27.32;38.75;101326.22;5078518;28;1046;-32
2023/09/17 08:06:25;;;;;;;;;;;;;;;27.71;38.29;101335.47;5078129;28;848;-32
2023/09/17 08:08:50;;;;;;;;;;;;;;;27.64;37.19;101320.94;5078214;28;1101;-32
2023/09/17 08:11:16;;;;;;;;;;;;;;;27.43;38.04;101314.22;5078806;28;1035;-30
2023/09/17 08:13:42;;;;;;;;;;;;;;;27.65;38.02;101322.59;5078366;28;2238;-31
2023/09/17 08:16:07;;;;;;;;;;;;;;;27.62;38.76;101328.38;5078400;28;1129;-30
2023/09/17 08:18:33;;;;;;;;;;;;;;;27.58;38.28;101322.44;5054597;28;1071;-30
2023/09/17 08:20:58;;;;;;;;;;;;;;;27.58;38.93;101327.84;5078203;28;1971;-31
2023/09/17 08:23:24;;;;;;;;;;;;;;;26.90;39.04;101319.94;5078169;28;1055;-28
2023/09/17 08:25:50;;;;;;;;;;;;;;;27.52;38.95;101320.44;5078278;28;1117;-33
2023/09/17 08:28:16;;;;;;;;;;;;;;;28.01;37.51;101326.72;5078065;28;1062;-33
2023/09/17 08:30:41;;;;;;;;;;;;;;;27.21;39.20;101324.69;5077897;28;910;-29
2023/09/17 08:33:09;;;;;;;;;;;;;;;26.78;39.81;101327.53;5078259;28;1138;-32
2023/09/17 08:35:35;;;;;;;;;;;;;;;27.51;39.26;101334.94;5078109;28;1066;-35
2023/09/17 08:38:01;;;;;;;;;;;;;;;27.69;37.69;101315.88;5078185;28;1075;-29
2023/09/17 08:40:27;;;;;;;;;;;;;;;27.34;38.19;101328.75;5078353;28;1910;-30
2023/09/17 08:42:53;;;;;;;;;;;;;;;27.34;38.62;101320.66;5077428;28;1071;-29
2023/09/17 08:45:18;;;;;;;;;;;;;;;27.57;38.35;101319.94;5059922;28;2718;-29
2023/09/17 08:47:44;;;;;;;;;;;;;;;26.83;39.73;101313.50;5059886;28;1145;-35
2023/09/17 08:50:09;;;;;;;;;;;;;;;27.14;39.42;101319.13;5059803;28;1111;-35
2023/09/17 08:52:37;;;;;;;;;;;;;;;27.57;38.05;101333.44;5077442;28;1150;-31
2023/09/17 08:55:04;;;;;;;;;;;;;;;27.09;38.74;101326.06;5045775;28;968;-30
2023/09/17 08:57:30;;;;;;;;;;;;;;;27.27;39.31;101317.78;5039966;28;1115;-29
2023/09/17 09:00:07;;;;;;;;;;;;;;;27.40;38.22;101319.97;5054167;28;1914;-28
2023/09/17 09:02:33;;;;;;;;;;;;;;;26.88;39.31;101321.97;5077189;28;1039;-30
2023/09/17 09:04:59;;;;;;;;;;;;;;;26.59;39.81;101317.88;5059463;28;1109;-33
2023/09/17 09:07:25;;;;;;;;;;;;;;;27.25;39.06;101323.34;5077206;28;819;-33
2023/09/17 09:09:51;;;;;;;;;;;;;;;27.42;38.21;101327.88;5063874;28;925;-32
2023/09/17 09:12:16;;;;;;;;;;;;;;;27.08;39.55;101322.50;5059212;28;1078;-34
2023/09/17 09:14:42;;;;;;;;;;;;;;;27.46;38.65;101316.56;5077186;28;2370;-29
2023/09/17 09:17:07;;;;;;;;;;;;;;;27.65;38.38;101317.19;5077270;28;1003;-31
2023/09/17 09:19:33;;;;;;;;;;;;;;;27.39;38.97;101318.28;5058980;28;1967;-30
2023/09/17 09:21:58;;;;;;;;;;;;;;;27.74;38.85;101318.06;5076815;28;955;-30
2023/09/17 09:24:24;;;;;;;;;;;;;;;27.98;38.19;101318.97;5076961;28;1081;-28
2023/09/17 09:26:50;;;;;;;;;;;;;;;27.66;38.60;101326.97;5050202;28;1174;-29
2023/09/17 09:29:15;;;;;;;;;;;;;;;27.39;38.64;101321.81;5072902;28;1181;-34
2023/09/17 09:31:42;;;;;;;;;;;;;;;27.33;39.21;101324.34;5076543;28;993;-30
2023/09/17 09:34:07;;;;;;;;;;;;;;;27.36;38.86;101321.31;5058861;28;1012;-28
2023/09/17 09:36:34;;;;;;;;;;;;;;;27.71;38.90;101319.25;5076456;28;1158;-33
2023/09/17 09:39:00;;;;;;;;;;;;;;;27.86;37.61;101315.84;5062240;28;1018;-31
2023/09/17 09:41:26;;;;;;;;;;;;;;;28.05;38.01;101319.13;5064105;28;1969;-30
2023/09/17 09:43:51;;;;;;;;;;;;;;;27.81;37.21;101312.81;5052160;28;1861;-29
2023/09/17 09:46:17;;;;;;;;;;;;;;;28.07;37.25;101315.25;5056909;28;1003;-31
2023/09/17 09:48:43;;;;;;;;;;;;;;;27.54;37.41;101320.28;5070428;28;1054;-34
2023/09/17 09:51:09;;;;;;;;;;;;;;;27.92;37.74;101312.44;5068080;28;1011;-30
2023/09/17 09:53:34;;;;;;;;;;;;;;;27.53;37.64;101310.50;5054830;28;1075;-33
2023/09/17 09:56:00;;;;;;;;;;;;;;;27.24;38.71;101316.25;5074000;28;840;-30
2023/09/17 09:58:25;;;;;;;;;;;;;;;27.90;38.40;101316.31;5074947;28;995;-31
2023/09/17 10:00:51;;;;;;;;;;;;;;;28.01;38.03;101321.31;5058045;28;1886;-29
2023/09/17 10:03:17;;;;;;;;;;;;;;;27.93;38.11;101315.94;5056648;28;1102;-33
2023/09/17 10:05:44;;;;;;;;;;;;;;;27.70;38.39;101314.00;5057527;28;1123;-33
2023/09/17 10:08:10;;;;;;;;;;;;;;;27.80;37.94;101319.22;5062399;28;875;-28
2023/09/17 10:10:36;;;;;;;;;;;;;;;27.89;37.87;101317.34;5075752;28;1015;-28
2023/09/17 10:13:05;;;;;;;;;;;;;;;28.06;37.47;101320.81;5075626;28;1859;-28
2023/09/17 10:15:31;;;;;;;;;;;;;;;28.29;37.62;101325.44;5075890;28;1099;-35
2023/09/17 10:17:56;;;;;;;;;;;;;;;27.99;37.82;101329.63;5058063;28;1055;-31
2023/09/17 10:20:22;;;;;;;;;;;;;;;28.09;36.76;101313.19;5058251;28;1910;-29
2023/09/17 10:22:47;;;;;;;;;;;;;;;27.73;38.03;101324.47;5074446;28;1134;-29
2023/09/17 10:25:14;;;;;;;;;;;;;;;28.03;37.58;101324.72;5046349;28;1024;-30
2023/09/17 10:27:40;;;;;;;;;;;;;;;27.83;37.87;101322.41;5062317;28;1027;-33
2023/09/17 10:30:06;;;;;;;;;;;;;;;27.57;38.35;101328.03;5057541;28;1011;-34
2023/09/17 10:32:32;;;;;;;;;;;;;;;28.05;37.67;101336.19;5076046;28;1126;-30
2023/09/17 10:34:57;;;;;;;;;;;;;;;28.02;37.86;101317.63;5075954;28;1063;-30
2023/09/17 10:37:23;;;;;;;;;;;;;;;27.85;38.35;101335.75;5065832;28;1181;-33
2023/09/17 10:39:49;;;;;;;;;;;;;;;27.50;38.02;101344.94;5075487;28;1957;-30
2023/09/17 10:42:14;;;;;;;;;;;;;;;27.80;38.63;101341.69;5075352;28;1067;-32
2023/09/17 10:44:40;;;;;;;;;;;;;;;28.38;37.28;101343.34;5044622;28;2751;-32
2023/09/17 10:47:07;;;;;;;;;;;;;;;28.14;37.65;101344.28;5055389;28;1044;-30
2023/09/17 10:49:32;;;;;;;;;;;;;;;28.27;38.01;101339.16;5057721;28;1051;-29
2023/09/17 10:51:58;;;;;;;;;;;;;;;28.34;37.66;101344.72;5075767;28;1088;-28
2023/09/17 10:54:23;;;;;;;;;;;;;;;28.56;37.66;101347.66;5075139;28;1034;-27
2023/09/17 10:56:49;;;;;;;;;;;;;;;28.57;38.09;101352.03;5075576;28;1124;-32
2023/09/17 10:59:15;;;;;;;;;;;;;;;28.50;37.89;101343.78;5057436;28;1910;-29
2023/09/17 11:01:41;;;;;;;;;;;;;;;28.34;37.38;101342.84;5075426;28;1134;-28
2023/09/17 11:04:12;;;;;;;;;;;;;;;28.34;37.50;101339.31;5046968;28;1019;-32
2023/09/17 11:06:37;;;;;;;;;;;;;;;28.18;37.87;101335.63;5076639;28;1019;-31
2023/09/17 11:09:06;;;;;;;;;;;;;;;28.14;37.75;101320.78;5062037;28;1126;-30
2023/09/17 11:11:32;;;;;;;;;;;;;;;27.82;37.71;101322.59;5061968;28;1124;-31
2023/09/17 11:13:57;;;;;;;;;;;;;;;28.08;37.82;101321.47;5079579;28;2365;-27
2023/09/17 11:16:23;;;;;;;;;;;;;;;27.87;38.15;101320.22;5079302;28;1090;-29
2023/09/17 11:19:08;;;;;;;;;;;;;;;28.17;38.45;101322.28;5079725;28;1126;-28
2023/09/17 11:21:34;;;;;;;;;;;;;;;28.03;37.91;101326.59;5067131;28;1910;-32
2023/09/17 11:24:00;;;;;;;;;;;;;;;28.16;37.79;101329.56;5079312;28;1038;-32
2023/09/17 11:26:26;;;;;;;;;;;;;;;27.81;37.99;101310.94;5061595;28;1448;-29
2023/09/17 11:28:56;;;;;;;;;;;;;;;27.84;38.06;101336.78;5079289;28;1038;-29
2023/09/17 11:31:22;;;;;;;;;;;;;;;28.60;37.05;101336.28;5078898;28;995;-33
2023/09/17 11:33:48;;;;;;;;;;;;;;;28.82;36.99;101339.19;5078999;28;1062;-32
2023/09/17 11:36:13;;;;;;;;;;;;;;;28.56;37.33;101332.25;5061600;28;1172;-29
2023/09/17 11:38:39;;;;;;;;;;;;;;;28.20;37.45;101338.16;5061130;28;1163;-28
2023/09/17 11:41:05;;;;;;;;;;;;;;;27.95;37.43;101336.41;5060855;28;2000;-30
2023/09/17 11:43:31;;;;;;;;;;;;;;;28.47;36.21;101333.31;5078811;28;2622;-28
2023/09/17 11:45:58;;;;;;;;;;;;;;;28.22;36.88;101330.72;5078886;28;1067;-28
2023/09/17 11:48:24;;;;;;;;;;;;;;;28.02;37.29;101330.28;5078840;28;1194;-33
2023/09/17 11:50:49;;;;;;;;;;;;;;;28.66;36.43;101336.59;5047676;28;1064;-30
2023/09/17 11:53:16;;;;;;;;;;;;;;;28.58;36.64;101335.63;5079259;28;1118;-31
2023/09/17 11:55:41;;;;;;;;;;;;;;;28.52;36.55;101328.22;5078331;28;1129;-29
2023/09/17 11:58:14;;;;;;;;;;;;;;;28.31;36.80;101335.06;5078942;28;1039;-30
2023/09/17 12:00:39;;;;;;;;;;;;;;;27.84;37.41;101325.97;5078401;28;1980;-30
2023/09/17 12:03:05;;;;;;;;;;;;;;;28.13;37.30;101329.91;5078562;28;1093;-33
2023/09/17 12:05:30;;;;;;;;;;;;;;;28.05;37.20;101321.81;5078276;28;1201;-33
2023/09/17 12:07:56;;;;;;;;;;;;;;;28.25;36.87;101327.66;5078032;28;1091;-30
2023/09/17 12:10:27;;;;;;;;;;;;;;;28.23;36.76;101330.53;5060497;28;1086;-33
2023/09/17 12:12:52;;;;;;;;;;;;;;;28.54;36.39;101328.91;5078635;28;1428;-34
2023/09/17 12:15:18;;;;;;;;;;;;;;;28.29;37.04;101333.56;5066058;28;1910;-32
2023/09/17 12:17:44;;;;;;;;;;;;;;;28.54;36.51;101323.47;5059499;28;1074;-30
2023/09/17 12:20:59;;;;;;;;;;;;;;;28.28;37.18;101318.38;5077634;28;1914;-31
2023/09/17 12:23:51;;;;;;;;;;;;;;;27.92;37.14;101312.44;4996542;28;1154;-28
2023/09/17 12:29:38;;;;;;;;;;;;;;;28.06;36.82;101305.41;5078065;28;1105;-29
2023/09/17 12:32:06;;;;;;;;;;;;;;;27.24;38.61;101310.03;5077645;28;1018;-32
2023/09/17 12:34:35;;;;;;;;;;;;;;;27.24;38.79;101318.94;5077990;28;1015;-30
2023/09/17 12:37:00;;;;;;;;;;;;;;;27.82;37.88;101312.63;5077872;28;1253;-29
2023/09/17 12:39:26;;;;;;;;;;;;;;;27.66;38.21;101316.19;5077601;28;1986;-28
2023/09/17 12:41:52;;;;;;;;;;;;;;;27.84;37.65;101321.38;5078398;28;1123;-31
2023/09/17 12:44:17;;;;;;;;;;;;;;;28.07;37.20;101303.56;5070720;28;1961;-28
2023/09/17 12:46:43;;;;;;;;;;;;;;;27.79;37.99;101318.38;5077839;28;983;-29